Аэропорт: Пулково. Санкт-Петербург

ICAO: ULLI

METAR:
2024-02-26 23:00:00
ULLI 262300Z 15002MPS 110V220 4700 2200SW BR OVC002 03/02 Q1016 R10R/290050 NOSIG RMK QBB080 OBST OBSC
TAF:
2024-02-26 22:56:00
TAF ULLI 262256Z 2700/2724 18003MPS 2000 BR OVC003 
  TEMPO 2700/2708 0400 -DZ FG OVC002 
  BECMG 2708/2710 6000 NSW BKN006 
  TEMPO 2710/2721 1000 -RA BR OVC003 
  TEMPO 2721/2724 06003MPS 0400 -SNRA FG OVC002